Latest Weather Observations for Goulburn Airport

IDN60901

Issued at 9:11 am EDT Thursday 11 February 2016 (issued every 10 minutes, with the page automatically refreshed every 10 minutes)

About weather observations | Map of Canberra area stations | Latest observations for Canberra area | Other Formats
Station Details ID: 070330 Name: GOULBURN AIRPORT AWS Lat: -34.81 Lon: 149.73 Height: 640.0 m
Data from the previous 72 hours. | See also: Recent months at Goulburn Airport
Date/Time
EDT
Tmp

°C
App
Tmp
°C
Dew
Point
°C
Rel
Hum
%
Delta-T

°C
Wind Press
QNH
hPa
Press
MSL
hPa
Rain
since
9 am
mm
Dir
 
Spd
km/h
Gust
km/h
Spd
kts
Gust
kts
11/09:00am 20.7 20.3 16.3 76 2.7 E 13 20 7 11 1017.5 1014.8 0.0
11/08:30am 19.3 19.2 16.0 81 2.0 ENE 11 13 6 7 1017.4 1014.7 0.0
11/08:00am 18.4 18.6 15.8 85 1.6 ENE 9 13 5 7 1017.2 1014.5 0.0
11/07:30am 18.1 18.8 16.1 88 1.2 ENE 7 9 4 5 1016.9 1014.1 0.0
11/07:00am 18.0 18.7 16.2 89 1.1 NE 7 11 4 6 1016.6 1013.8 0.0
11/06:30am 17.9 17.9 16.2 90 1.0 SE 11 15 6 8 1016.1 1013.4 0.0
11/06:00am 17.9 17.9 16.2 90 1.0 SSE 11 15 6 8 1016.0 1013.3 0.0
11/05:30am 17.9 18.3 16.2 90 1.0 SE 9 11 5 6 1015.7 1013.0 0.0
11/05:00am 17.8 18.6 16.3 91 0.9 SE 7 9 4 5 1015.3 1012.5 0.0
11/04:30am 17.8 17.4 16.3 91 0.9 ENE 13 17 7 9 1015.2 1012.4 0.0
11/04:00am 18.0 17.8 16.7 92 0.8 ENE 13 15 7 8 1015.2 1012.4 0.0
11/03:30am 18.0 18.3 16.9 93 0.7 E 11 15 6 8 1015.2 1012.4 0.0
11/03:00am 17.4 17.9 16.6 95 0.5 SSE 9 11 5 6 1015.5 1012.7 0.0
11/02:30am 17.1 18.2 16.5 96 0.4 S 6 7 3 4 1015.7 1013.0 0.0
11/02:00am 16.7 17.0 16.1 96 0.4 S 9 13 5 7 1015.8 1013.1 0.0
11/01:30am 16.0 15.9 15.0 94 0.6 S 9 11 5 6 1016.1 1013.4 0.0
11/01:25am 16.4 16.5 15.6 95 0.5 S 9 13 5 7 1016.0 1013.3 0.0
11/01:00am 16.7 16.1 15.7 94 0.6 S 13 17 7 9 1016.1 1013.4 0.0
11/12:30am 17.0 16.5 15.9 93 0.7 SSE 13 15 7 8 1016.1 1013.4 0.0
11/12:00am 16.8 17.0 14.8 88 1.2 SSE 7 9 4 5 1016.1 1013.4 0.0
 
Date/Time
EDT
Tmp

°C
App
Tmp
°C
Dew
Point
°C
Rel
Hum
%
Delta-T

°C
Wind Press
QNH
hPa
Press
MSL
hPa
Rain
since
9 am
mm
Dir
 
Spd
km/h
Gust
km/h
Spd
kts
Gust
kts
10/11:30pm 17.5 17.8 14.4 82 1.8 S 6 9 3 5 1016.0 1013.3 0.0
10/11:00pm 17.5 16.5 13.4 77 2.4 SSE 11 13 6 7 1015.9 1013.2 0.0
10/10:30pm 18.4 18.1 14.3 77 2.4 SSW 9 15 5 8 1015.8 1013.1 0.0
10/10:00pm 20.3 21.4 14.7 70 3.4 ESE 2 6 1 3 1015.6 1012.8 0.0
10/09:30pm 19.3 20.0 14.6 74 2.8 NW 4 7 2 4 1015.3 1012.5 0.0
10/09:00pm 19.1 17.5 12.8 67 3.7 S 13 15 7 8 1015.2 1012.4 0.0
10/08:30pm 19.3 17.1 9.2 52 5.5 W 11 11 6 6 1014.6 1011.9 0.0
10/08:00pm 22.0 19.7 8.9 43 7.2 W 11 13 6 7 1014.5 1011.8 0.0
10/07:30pm 26.2 24.2 10.0 36 9.3 W 11 15 6 8 1014.2 1011.4 0.0
10/07:00pm 28.2 24.9 8.0 28 11.3 WSW 15 20 8 11 1013.8 1011.0 0.0
10/06:30pm 29.3 25.2 6.0 23 12.6 W 17 22 9 12 1013.3 1010.5 0.0
10/06:00pm 29.8 25.8 6.5 23 12.8 WSW 17 22 9 12 1013.1 1010.4 0.0
10/05:30pm 30.4 27.0 7.6 24 12.8 WSW 15 22 8 12 1013.1 1010.4 0.0
10/05:00pm 30.2 25.7 6.8 23 12.9 WSW 20 28 11 15 1013.1 1010.4 0.0
10/04:30pm 30.2 26.0 7.4 24 12.7 WSW 19 32 10 17 1013.4 1010.6 0.0
10/04:00pm 29.6 25.9 10.2 30 11.3 W 20 33 11 18 1013.6 1010.8 0.0
10/03:30pm 29.8 26.2 10.4 30 11.3 WSW 20 32 11 17 1013.9 1011.1 0.0
10/03:00pm 29.4 25.8 11.9 34 10.5 WSW 22 35 12 19 1014.2 1011.4 0.0
10/02:30pm 29.0 25.7 12.8 36 9.8 WNW 22 32 12 17 1014.7 1012.0 0.0
10/02:00pm 28.9 26.1 13.2 38 9.5 W 20 32 11 17 1015.2 1012.4 0.0
10/01:30pm 28.7 26.4 14.1 40 9.0 W 19 30 10 16 1015.5 1012.7 0.0
10/01:00pm 27.5 25.0 12.3 39 9.1 W 17 24 9 13 1015.8 1013.1 0.0
10/12:30pm 27.2 24.0 13.2 42 8.5 W 22 32 12 17 1016.2 1013.5 0.0
10/12:00pm 26.7 23.9 13.1 43 8.2 WNW 20 30 11 16 1016.7 1013.9 0.0
10/11:30am 25.4 23.8 12.9 45 7.5 NW 13 19 7 10 1017.2 1014.5 0.0
10/11:00am 23.8 23.0 13.9 54 6.0 NW 11 15 6 8 1017.5 1014.8 0.0
10/10:30am 21.7 20.6 14.4 63 4.4 NW 13 19 7 10 1017.8 1015.1 0.0
10/10:00am 19.5 18.9 14.7 74 2.9 NW 11 17 6 9 1018.0 1015.3 0.0
10/09:43am 17.4 17.6 15.7 90 1.0 N 9 11 5 6 1018.1 1015.4 0.0
10/09:30am 15.5 15.5 15.2 98 0.2 N 9 11 5 6 1018.3 1015.5 0.0
10/09:00am 14.4 14.0 14.2 99 0.1 NNW 9 13 5 7 1018.6 1015.9 0.0
10/08:30am 13.6 13.0 13.4 99 0.1 N 9 11 5 6 1018.5 1015.7 0.0
10/08:00am 13.0 12.5 12.7 98 0.2 NNE 7 9 4 5 1018.4 1015.6 0.0
10/07:30am 12.4 13.1 12.1 98 0.2 CALM 0 0 0 0 1018.1 1015.4 0.0
10/07:00am 11.9 12.4 11.6 98 0.2 CALM 0 0 0 0 1017.8 1015.1 0.0
10/06:30am 11.9 12.4 11.6 98 0.2 CALM 0 0 0 0 1017.7 1015.0 0.0
10/06:00am 11.0 10.1 10.5 97 0.3 SW 6 9 3 5 1017.5 1014.8 0.0
10/05:30am 11.0 10.0 10.4 96 0.3 SE 6 7 3 4 1017.4 1014.7 0.0
10/05:02am 10.9 9.7 10.3 96 0.3 S 7 9 4 5 1017.4 1014.7 0.0
10/05:00am 10.7 9.4 9.9 95 0.4 S 7 9 4 5 1017.4 1014.7 0.0
10/04:30am 11.5 11.7 10.7 95 0.4 CALM 0 0 0 0 1017.5 1014.8 0.0
10/04:00am 11.9 12.3 11.1 95 0.4 CALM 0 0 0 0 1017.5 1014.8 0.0
10/03:30am 11.9 12.2 11.0 94 0.5 CALM 0 0 0 0 1017.7 1015.0 0.0
10/03:00am 12.3 12.6 11.0 92 0.7 CALM 0 0 0 0 1017.9 1015.2 0.0
10/02:30am 13.7 14.2 12.8 94 0.5 E 2 6 1 3 1018.4 1015.6 0.0
10/02:00am 14.1 13.9 13.0 93 0.6 E 6 7 3 4 1018.7 1016.0 0.0
10/01:30am 14.1 14.5 12.5 90 0.9 ENE 2 7 1 4 1019.0 1016.3 0.0
10/01:00am 15.0 14.7 13.2 89 1.0 ENE 7 9 4 5 1019.3 1016.6 0.0
10/12:30am 15.6 15.3 13.4 87 1.3 ENE 7 9 4 5 1019.7 1017.0 0.0
10/12:00am 15.8 15.7 13.3 85 1.4 ENE 6 9 3 5 1020.2 1017.5 0.0
 
Date/Time
EDT
Tmp

°C
App
Tmp
°C
Dew
Point
°C
Rel
Hum
%
Delta-T

°C
Wind Press
QNH
hPa
Press
MSL
hPa
Rain
since
9 am
mm
Dir
 
Spd
km/h
Gust
km/h
Spd
kts
Gust
kts
09/11:30pm 16.5 16.0 13.8 84 1.6 ENE 9 17 5 9 1020.4 1017.7 0.0
09/11:00pm 16.5 16.6 13.8 84 1.6 N 6 11 3 6 1020.7 1018.0 0.0
09/10:30pm 17.0 16.2 14.1 83 1.7 ENE 11 19 6 10 1020.7 1018.0 0.0
09/10:00pm 17.1 16.6 13.8 81 1.9 ENE 9 13 5 7 1020.8 1018.1 0.0
09/09:30pm 17.9 16.3 14.0 78 2.3 ENE 15 22 8 12 1020.7 1018.0 0.0
09/09:00pm 17.8 18.1 13.3 75 2.6 WNW 4 9 2 5 1020.5 1017.8 0.0
09/08:30pm 19.2 18.2 13.4 69 3.4 E 11 17 6 9 1020.1 1017.4 0.0
09/08:00pm 20.4 18.1 12.9 62 4.4 E 17 24 9 13 1020.0 1017.3 0.0
09/07:30pm 22.1 19.5 12.1 53 5.8 E 17 22 9 12 1019.7 1017.0 0.0
09/07:00pm 23.4 20.7 11.8 48 6.7 ENE 17 22 9 12 1019.4 1016.7 0.0
09/06:30pm 24.2 21.6 11.9 46 7.2 NE 17 22 9 12 1019.2 1016.5 0.0
09/06:00pm 24.7 22.1 12.0 45 7.4 ENE 17 24 9 13 1019.2 1016.5 0.0
09/05:30pm 25.0 22.7 12.9 47 7.2 NE 17 22 9 12 1019.3 1016.6 0.0
09/05:00pm 25.4 24.0 13.3 47 7.3 E 13 19 7 10 1019.5 1016.8 0.0
09/04:30pm 25.4 24.9 12.6 45 7.6 SE 7 13 4 7 1019.7 1017.0 0.0
09/04:00pm 25.1 24.6 12.7 46 7.4 E 7 17 4 9 1020.1 1017.4 0.0
09/03:30pm 24.8 22.8 12.7 47 7.2 SSE 15 24 8 13 1020.4 1017.7 0.0
09/03:00pm 25.1 24.4 14.3 51 6.6 E 11 20 6 11 1020.8 1018.1 0.0
09/02:30pm 24.4 24.1 14.5 54 6.0 E 9 15 5 8 1021.2 1018.5 0.0
09/02:00pm 23.8 22.1 12.4 48 6.7 E 13 20 7 11 1021.6 1018.9 0.0
09/01:30pm 23.5 23.0 14.8 58 5.3 SE 11 22 6 12 1022.0 1019.3 0.0
09/01:00pm 22.3 21.4 14.9 63 4.5 NE 13 19 7 10 1022.2 1019.5 0.0
09/12:30pm 21.9 20.5 13.5 59 5.0 ENE 13 26 7 14 1022.7 1020.1 0.0
09/12:00pm 21.4 19.2 15.0 67 3.9 ENE 20 30 11 16 1023.0 1020.4 0.0
09/11:30am 20.5 19.0 15.3 72 3.2 ENE 17 24 9 13 1023.4 1020.7 0.0
09/11:00am 20.1 18.8 15.7 76 2.7 E 17 24 9 13 1023.5 1020.8 0.0
09/10:56am 19.9 18.9 15.7 77 2.6 ESE 15 20 8 11 1023.6 1020.9 0.0
09/10:37am 19.3 18.2 15.2 77 2.5 ESE 15 20 8 11 1023.6 1020.9 0.0
09/10:30am 19.2 18.5 15.3 78 2.4 ESE 13 19 7 10 1023.6 1020.9 0.0
09/10:00am 18.7 17.4 14.8 78 2.3 ESE 15 19 8 10 1023.5 1020.8 0.0
09/09:30am 18.5 17.6 14.8 79 2.2 ESE 13 17 7 9 1023.5 1020.8 0.0
09/09:17am 18.5 18.6 15.4 82 1.9 SE 9 13 5 7 1023.5 1020.8 0.0
09/09:00am 18.2 18.2 15.3 83 1.7 ESE 9 13 5 7 1023.4 1020.7 0.0
09/08:59am 18.1 18.1 15.2 83 1.7 ESE 9 13 5 7 1023.4 1020.7 0.0
09/08:33am 17.6 18.4 16.3 92 0.8 ESE 7 11 4 6 1023.3 1020.6 0.0
09/08:30am 17.3 18.0 16.2 93 0.7 ESE 7 9 4 5 1023.3 1020.6 0.0
09/08:29am 17.1 17.8 16.0 93 0.7 ESE 7 9 4 5 1023.3 1020.6 0.0
09/08:00am 15.8 16.4 15.3 97 0.3 SE 6 7 3 4 1022.9 1020.3 0.0
09/07:56am 15.5 16.1 15.2 98 0.2 ESE 6 7 3 4 1022.9 1020.3 0.0
09/07:30am 15.0 16.5 14.7 98 0.2 CALM 0 0 0 0 1022.6 1019.9 0.0
09/07:00am 13.6 13.5 13.3 98 0.2 SW 6 7 3 4 1022.5 1019.8 0.0
09/06:30am 12.4 13.0 11.8 96 0.3 CALM 0 0 0 0 1022.1 1019.4 0.0
09/06:00am 12.4 12.9 11.6 95 0.4 CALM 0 0 0 0 1021.9 1019.2 0.0
09/05:30am 12.4 11.5 11.5 94 0.5 S 7 9 4 5 1021.7 1019.0 0.0
09/05:00am 13.0 12.2 11.6 91 0.8 SSW 7 9 4 5 1021.4 1018.8 0.0
09/04:30am 13.7 14.4 12.1 90 0.9 CALM 0 0 0 0 1021.4 1018.8 0.0
09/04:00am 15.1 15.2 12.8 86 1.3 ENE 4 6 2 3 1021.4 1018.8 0.0
09/03:30am 16.0 16.7 13.5 85 1.4 ESE 2 9 1 5 1021.6 1018.9 0.0
09/03:00am 16.1 16.2 13.9 87 1.3 ESE 6 7 3 4 1021.7 1019.0 0.0
09/02:30am 15.7 15.5 13.7 88 1.2 SE 7 9 4 5 1021.9 1019.2 0.0
09/02:00am 15.9 15.7 13.0 83 1.7 ENE 6 7 3 4 1022.0 1019.3 0.0
09/01:30am 16.9 16.0 13.8 82 1.8 ESE 11 17 6 9 1022.3 1019.6 0.0
09/01:00am 16.8 15.1 13.7 82 1.8 ESE 15 17 8 9 1022.5 1019.8 0.0
09/12:46am 16.6 15.0 13.9 84 1.6 SE 15 22 8 12 1022.6 1019.9 0.0
09/12:30am 15.8 15.4 14.0 89 1.0 SE 9 13 5 7 1022.6 1019.9 0.0
09/12:07am 15.6 14.3 13.8 89 1.0 SE 13 15 7 8 1022.6 1019.9 0.0
09/12:00am 15.2 13.8 13.4 89 1.0 ESE 13 15 7 8 1022.7 1020.1 0.0
 
Date/Time
EDT
Tmp

°C
App
Tmp
°C
Dew
Point
°C
Rel
Hum
%
Delta-T

°C
Wind Press
QNH
hPa
Press
MSL
hPa
Rain
since
9 am
mm
Dir
 
Spd
km/h
Gust
km/h
Spd
kts
Gust
kts
08/11:30pm 15.0 14.0 12.3 84 1.5 ESE 9 11 5 6 1022.5 1019.8 0.0
08/11:00pm 16.4 15.9 12.8 79 2.1 E 7 9 4 5 1022.5 1019.8 0.0
08/10:30pm 17.1 16.6 12.8 76 2.5 E 7 9 4 5 1022.4 1019.7 0.0
08/10:00pm 17.9 16.4 13.2 74 2.7 ESE 13 19 7 10 1022.3 1019.6 0.0
08/09:30pm 18.5 16.6 13.1 71 3.1 ESE 15 20 8 11 1021.9 1019.2 0.0
08/09:00pm 19.4 18.0 14.4 73 3.0 ESE 15 20 8 11 1021.4 1018.8 0.0
08/08:30pm 19.8 18.8 13.3 66 3.8 ESE 11 15 6 8 1020.9 1018.2 0.0
08/08:00pm 22.0 20.0 12.8 56 5.4 E 15 20 8 11 1020.4 1017.7 0.0
08/07:30pm 24.1 21.1 12.7 49 6.7 E 20 24 11 13 1020.0 1017.3 0.0
08/07:00pm 25.0 21.6 12.6 46 7.3 E 22 28 12 15 1019.5 1016.8 0.0
08/06:30pm 26.2 23.1 11.5 40 8.6 ESE 19 28 10 15 1019.3 1016.6 0.0
08/06:00pm 26.8 22.7 7.8 30 10.5 ESE 19 24 10 13 1019.3 1016.6 0.0
08/05:30pm 27.2 23.0 7.6 29 10.8 ESE 19 24 10 13 1019.2 1016.5 0.0
08/05:00pm 27.6 23.1 6.9 27 11.3 ESE 20 33 11 18 1019.3 1016.6 0.0
08/04:30pm 27.9 23.1 5.5 24 12.0 SE 20 32 11 17 1019.5 1016.8 0.0
08/04:00pm 27.8 22.9 8.6 30 10.8 SE 24 32 13 17 1019.7 1017.0 0.0
08/03:30pm 27.9 23.7 8.2 29 11.0 SE 20 33 11 18 1019.9 1017.1 0.0
08/03:00pm 27.5 23.3 8.4 30 10.7 SE 20 28 11 15 1020.1 1017.4 0.0
08/02:30pm 27.6 23.9 10.3 34 10.0 SSE 20 32 11 17 1020.4 1017.7 0.0
08/02:00pm 27.0 23.3 10.2 35 9.6 SE 20 32 11 17 1020.6 1017.9 0.0
08/01:30pm 26.3 21.9 7.4 30 10.3 SE 20 28 11 15 1020.8 1018.1 0.0
08/01:00pm 25.9 22.1 7.5 31 10.0 SE 17 26 9 14 1020.9 1018.2 0.0
08/12:30pm 25.2 21.5 7.8 33 9.5 SE 17 24 9 13 1021.2 1018.5 0.0
08/12:00pm 24.5 22.6 11.8 45 7.4 S 13 22 7 12 1021.4 1018.8 0.0
08/11:30am 22.9 22.3 13.4 55 5.7 S 9 15 5 8 1021.8 1019.1 0.0
08/11:00am 21.6 21.0 15.7 69 3.6 SE 13 17 7 9 1021.9 1019.2 0.0
08/10:30am 19.3 20.0 15.6 79 2.3 WSW 6 9 3 5 1022.0 1019.3 0.0
08/10:00am 17.8 19.0 16.0 89 1.1 SE 4 7 2 4 1021.9 1019.2 0.0
08/09:58am 17.5 18.7 15.8 90 1.0 ESE 4 7 2 4 1022.0 1019.3 0.0
08/09:30am 15.8 16.2 14.7 93 0.6 NE 6 7 3 4 1021.9 1019.2 0.0

Latest Capital City Observations: Canberra | Sydney | Melbourne | Brisbane | Adelaide | Perth | Hobart | Darwin

Other Formats:

Comma delimited format used in spreadsheet applications
http://www.bom.gov.au/fwo/IDN60903/IDN60903.95716.axf

JavaScript Object Notation format (JSON) in row-major order
http://www.bom.gov.au/fwo/IDN60903/IDN60903.95716.json